Silverdale, Kansas
Current Conditions -  °F | °C
As of 6:17 PM on Friday 21 Nov 2014 (Local Time) from KWLD Reporting Station
Moderate Fog Moderate Fog  
Wind Chill: 47°   Ceiling: 300
Heat Index: 47°   Visibility: 0.5mi
Dew Point: 47°   Wind: 3mph
Humidity: 100%   Direction: 360°N
Pressure: 30.04"   Gusts: NA
Location:  37.0955°N, 96.9739°W
Report Text: KWLD 220017Z AUTO 36003KT 1/2SM FG VV003 08/08 A3004 RMK AO2 T00830083
Loading
Personal Weather Stations






























Interactive Weather Map New forecast layout! Learn more

10-Day Weather Forecast

Advertisements
Track Severe Weather on mobile